MSC601 EDDK-HECA
Flight info
| Callsign | MSC601 |
|---|---|
| Flight time | 3h 51m |
| Altitude | 35000 |
| Route | KUMIK1R/31R KUMIK L603 TESGA DCT ESATI DCT OSBIT DCT TENLO DCT LAMSI DCT LIMRA DCT LURID DCT ENFAR/N0434F370 DCT BITLA DCT KEA UN132 LAPSO DCT GUDIS DCT KUMBI L612 BLT |
| Aircraft | A320/M-SDE3FGHIRWY/LB1 |
Departure
| Time | 2026-04-26 14:49 |
|---|---|
| Airport | Cologne Bonn Airport (EDDK) |
Arrival
| Time | 2026-04-26 18:41 |
|---|---|
| Airport | Cairo International Airport (HECA) |
| Time | Latitude | Longitude | Altitude | Speed | Heading |
|---|---|---|---|---|---|
| 2026-04-26 14:13 | 50.88125 | 7.12042 | 232 ft | 0 kts | 216° |
| 2026-04-26 14:28 | 50.88139 | 7.12058 | 259 ft | 4 kts | 218° |
| 2026-04-26 14:28 | 50.88158 | 7.12081 | 226 ft | 2 kts | 216° |
| 2026-04-26 14:28 | 50.88178 | 7.12097 | 236 ft | 4 kts | 163° |
| 2026-04-26 14:29 | 50.88194 | 7.12073 | 234 ft | 4 kts | 115° |
| 2026-04-26 14:29 | 50.88203 | 7.12043 | 234 ft | 0 kts | 126° |
| 2026-04-26 14:32 | 50.88202 | 7.12046 | 232 ft | 2 kts | 126° |
| 2026-04-26 14:32 | 50.88180 | 7.12092 | 233 ft | 9 kts | 126° |
| 2026-04-26 14:32 | 50.88148 | 7.12162 | 232 ft | 7 kts | 127° |
| 2026-04-26 14:33 | 50.88124 | 7.12215 | 233 ft | 3 kts | 126° |
| 2026-04-26 14:33 | 50.88103 | 7.12269 | 232 ft | 13 kts | 111° |
| 2026-04-26 14:33 | 50.88065 | 7.12394 | 233 ft | 12 kts | 127° |
| 2026-04-26 14:33 | 50.88010 | 7.12480 | 232 ft | 10 kts | 138° |
| 2026-04-26 14:34 | 50.87960 | 7.12552 | 232 ft | 10 kts | 136° |
| 2026-04-26 14:34 | 50.87886 | 7.12610 | 232 ft | 13 kts | 183° |
| 2026-04-26 14:34 | 50.87810 | 7.12640 | 232 ft | 12 kts | 144° |
| 2026-04-26 14:34 | 50.87717 | 7.12772 | 232 ft | 25 kts | 138° |
| 2026-04-26 14:35 | 50.87581 | 7.12970 | 232 ft | 27 kts | 138° |
| 2026-04-26 14:35 | 50.87439 | 7.13176 | 232 ft | 28 kts | 137° |
| 2026-04-26 14:35 | 50.87294 | 7.13386 | 232 ft | 28 kts | 137° |
| 2026-04-26 14:35 | 50.87151 | 7.13592 | 238 ft | 27 kts | 137° |
| 2026-04-26 14:36 | 50.87017 | 7.13788 | 243 ft | 26 kts | 137° |
| 2026-04-26 14:36 | 50.86895 | 7.13964 | 252 ft | 21 kts | 138° |
| 2026-04-26 14:36 | 50.86797 | 7.14105 | 255 ft | 18 kts | 140° |
| 2026-04-26 14:36 | 50.86703 | 7.14183 | 258 ft | 13 kts | 139° |
| 2026-04-26 14:37 | 50.86642 | 7.14268 | 261 ft | 11 kts | 139° |
| 2026-04-26 14:37 | 50.86578 | 7.14358 | 261 ft | 13 kts | 135° |
| 2026-04-26 14:37 | 50.86510 | 7.14460 | 265 ft | 13 kts | 137° |
| 2026-04-26 14:37 | 50.86445 | 7.14554 | 269 ft | 12 kts | 137° |
| 2026-04-26 14:38 | 50.86386 | 7.14640 | 273 ft | 11 kts | 136° |
| 2026-04-26 14:38 | 50.86334 | 7.14715 | 276 ft | 9 kts | 137° |
| 2026-04-26 14:38 | 50.86294 | 7.14774 | 278 ft | 9 kts | 137° |
| 2026-04-26 14:38 | 50.86238 | 7.14855 | 281 ft | 24 kts | 137° |
| 2026-04-26 14:39 | 50.86048 | 7.15131 | 293 ft | 27 kts | 137° |
| 2026-04-26 14:39 | 50.85911 | 7.15329 | 296 ft | 26 kts | 137° |
| 2026-04-26 14:39 | 50.85779 | 7.15516 | 302 ft | 25 kts | 138° |
| 2026-04-26 14:39 | 50.85656 | 7.15697 | 305 ft | 23 kts | 137° |
| 2026-04-26 14:40 | 50.85542 | 7.15864 | 309 ft | 21 kts | 137° |
| 2026-04-26 14:40 | 50.85444 | 7.16005 | 307 ft | 18 kts | 138° |
| 2026-04-26 14:40 | 50.85368 | 7.16123 | 307 ft | 10 kts | 129° |
| 2026-04-26 14:40 | 50.85338 | 7.16218 | 308 ft | 9 kts | 107° |
| 2026-04-26 14:41 | 50.85337 | 7.16304 | 307 ft | 7 kts | 81° |
| 2026-04-26 14:41 | 50.85350 | 7.16373 | 308 ft | 6 kts | 68° |
| 2026-04-26 14:41 | 50.85366 | 7.16420 | 308 ft | 4 kts | 56° |
| 2026-04-26 14:41 | 50.85371 | 7.16430 | 310 ft | 0 kts | 53° |
| 2026-04-26 14:43 | 50.85372 | 7.16432 | 307 ft | 0 kts | 53° |
| 2026-04-26 14:43 | 50.85391 | 7.16463 | 308 ft | 6 kts | 41° |
| 2026-04-26 14:44 | 50.85424 | 7.16493 | 307 ft | 5 kts | 24° |
| 2026-04-26 14:44 | 50.85426 | 7.16494 | 307 ft | 0 kts | 23° |
| 2026-04-26 14:47 | 50.85432 | 7.16498 | 307 ft | 4 kts | 23° |
| 2026-04-26 14:47 | 50.85476 | 7.16517 | 307 ft | 8 kts | 8° |
| 2026-04-26 14:48 | 50.85514 | 7.16540 | 307 ft | 5 kts | 35° |
| 2026-04-26 14:48 | 50.85537 | 7.16545 | 309 ft | 2 kts | 333° |
| 2026-04-26 14:48 | 50.85551 | 7.16524 | 309 ft | 9 kts | 318° |
| 2026-04-26 14:48 | 50.85756 | 7.16228 | 307 ft | 75 kts | 317° |
| 2026-04-26 14:49 | 50.86297 | 7.15446 | 292 ft | 133 kts | 317° |
| 2026-04-26 14:49 | 50.87094 | 7.14289 | 336 ft | 170 kts | 317° |
| 2026-04-26 14:49 | 50.87949 | 7.13045 | 1002 ft | 168 kts | 317° |
| 2026-04-26 14:49 | 50.88823 | 7.11774 | 1588 ft | 176 kts | 320° |
| 2026-04-26 14:50 | 50.90035 | 7.11131 | 1804 ft | 201 kts | 6° |
| 2026-04-26 14:50 | 50.91401 | 7.11849 | 2226 ft | 213 kts | 23° |
| 2026-04-26 14:50 | 50.92746 | 7.12920 | 2939 ft | 216 kts | 31° |
| 2026-04-26 14:50 | 50.93797 | 7.14605 | 3691 ft | 220 kts | 59° |
| 2026-04-26 14:51 | 50.94466 | 7.16938 | 4055 ft | 244 kts | 64° |
| 2026-04-26 14:51 | 50.95249 | 7.19454 | 4549 ft | 261 kts | 63° |
| 2026-04-26 14:51 | 50.96072 | 7.22038 | 5297 ft | 268 kts | 62° |
| 2026-04-26 14:51 | 50.96926 | 7.24734 | 6082 ft | 272 kts | 62° |
| 2026-04-26 14:52 | 50.97770 | 7.27404 | 6847 ft | 276 kts | 62° |
| 2026-04-26 14:52 | 50.98628 | 7.30127 | 7600 ft | 280 kts | 61° |
| 2026-04-26 14:52 | 50.99503 | 7.32900 | 8369 ft | 283 kts | 60° |
| 2026-04-26 14:52 | 51.00404 | 7.35753 | 9153 ft | 286 kts | 60° |
| 2026-04-26 14:53 | 51.01242 | 7.38615 | 9909 ft | 292 kts | 68° |
| 2026-04-26 14:53 | 51.01661 | 7.41795 | 10608 ft | 300 kts | 84° |
| 2026-04-26 14:53 | 51.01520 | 7.45161 | 11052 ft | 317 kts | 101° |
| 2026-04-26 14:53 | 51.00870 | 7.48633 | 11223 ft | 340 kts | 106° |
| 2026-04-26 14:54 | 51.00140 | 7.52283 | 11628 ft | 353 kts | 106° |
| 2026-04-26 14:54 | 50.99390 | 7.56044 | 12248 ft | 357 kts | 106° |
| 2026-04-26 14:54 | 50.98638 | 7.59830 | 12910 ft | 361 kts | 106° |
| 2026-04-26 14:54 | 50.97883 | 7.63644 | 13560 ft | 365 kts | 106° |
| 2026-04-26 14:55 | 50.97119 | 7.67508 | 14103 ft | 369 kts | 106° |
| 2026-04-26 14:55 | 50.96348 | 7.71399 | 14239 ft | 370 kts | 106° |
| 2026-04-26 14:55 | 50.95576 | 7.75309 | 14606 ft | 373 kts | 107° |
| 2026-04-26 14:55 | 50.94797 | 7.79251 | 15226 ft | 375 kts | 108° |
| 2026-04-26 14:56 | 50.93760 | 7.83061 | 15796 ft | 378 kts | 119° |
| 2026-04-26 14:56 | 50.92344 | 7.86592 | 16366 ft | 381 kts | 124° |
| 2026-04-26 14:56 | 50.90871 | 7.90108 | 16939 ft | 384 kts | 124° |
| 2026-04-26 14:56 | 50.89392 | 7.93646 | 17505 ft | 387 kts | 124° |
| 2026-04-26 14:57 | 50.87900 | 7.97212 | 18065 ft | 390 kts | 124° |
| 2026-04-26 14:57 | 50.86412 | 8.00757 | 18599 ft | 392 kts | 124° |
| 2026-04-26 14:57 | 50.84895 | 8.04365 | 19061 ft | 396 kts | 124° |
| 2026-04-26 14:57 | 50.83367 | 8.08002 | 19518 ft | 398 kts | 124° |
| 2026-04-26 14:58 | 50.81827 | 8.11671 | 20003 ft | 401 kts | 124° |
| 2026-04-26 14:58 | 50.80282 | 8.15345 | 20477 ft | 404 kts | 124° |
| 2026-04-26 14:58 | 50.78713 | 8.19071 | 20922 ft | 406 kts | 124° |
| 2026-04-26 14:58 | 50.77142 | 8.22793 | 21368 ft | 409 kts | 124° |
| 2026-04-26 14:59 | 50.75554 | 8.26548 | 21820 ft | 411 kts | 124° |
| 2026-04-26 14:59 | 50.73962 | 8.30300 | 22261 ft | 414 kts | 124° |
| 2026-04-26 14:59 | 50.72354 | 8.34086 | 22693 ft | 416 kts | 124° |
| 2026-04-26 14:59 | 50.71256 | 8.36583 | 22973 ft | 418 kts | 128° |
| 2026-04-26 15:00 | 50.68565 | 8.41007 | 23521 ft | 420 kts | 142° |
| 2026-04-26 15:00 | 50.66169 | 8.43626 | 23924 ft | 420 kts | 152° |
| 2026-04-26 15:00 | 50.63590 | 8.45802 | 24292 ft | 421 kts | 154° |
| 2026-04-26 15:00 | 50.60994 | 8.47983 | 24647 ft | 423 kts | 153° |
| 2026-04-26 15:01 | 50.58390 | 8.50183 | 24991 ft | 425 kts | 153° |
| 2026-04-26 15:01 | 50.55779 | 8.52392 | 25325 ft | 427 kts | 153° |
| 2026-04-26 15:01 | 50.53154 | 8.54608 | 25660 ft | 429 kts | 153° |
| 2026-04-26 15:01 | 50.50516 | 8.56828 | 25985 ft | 431 kts | 153° |
| 2026-04-26 15:02 | 50.47893 | 8.59037 | 26290 ft | 433 kts | 153° |
| 2026-04-26 15:02 | 50.45275 | 8.61392 | 26605 ft | 436 kts | 147° |
| 2026-04-26 15:02 | 50.42873 | 8.64341 | 26909 ft | 440 kts | 137° |
| 2026-04-26 15:02 | 50.40663 | 8.67666 | 27220 ft | 442 kts | 136° |
| 2026-04-26 15:03 | 50.38445 | 8.71017 | 27508 ft | 444 kts | 136° |
| 2026-04-26 15:03 | 50.36215 | 8.74383 | 27808 ft | 446 kts | 137° |
| 2026-04-26 15:03 | 50.33974 | 8.77751 | 28107 ft | 448 kts | 137° |
| 2026-04-26 15:03 | 50.31719 | 8.81132 | 28405 ft | 450 kts | 137° |
| 2026-04-26 15:04 | 50.29450 | 8.84534 | 28677 ft | 453 kts | 137° |
| 2026-04-26 15:04 | 50.27172 | 8.87947 | 28963 ft | 455 kts | 137° |
| 2026-04-26 15:04 | 50.24876 | 8.91382 | 29241 ft | 457 kts | 137° |
| 2026-04-26 15:04 | 50.22575 | 8.94819 | 29515 ft | 459 kts | 137° |
| 2026-04-26 15:05 | 50.20253 | 8.98290 | 29781 ft | 461 kts | 136° |
| 2026-04-26 15:05 | 50.18718 | 9.00585 | 29954 ft | 462 kts | 136° |
| 2026-04-26 15:05 | 50.15633 | 9.05186 | 30285 ft | 465 kts | 137° |
| 2026-04-26 15:05 | 50.13281 | 9.08680 | 30524 ft | 467 kts | 137° |
| 2026-04-26 15:06 | 50.11012 | 9.12288 | 30713 ft | 469 kts | 130° |
| 2026-04-26 15:06 | 50.09120 | 9.16427 | 30970 ft | 469 kts | 120° |
| 2026-04-26 15:06 | 50.07717 | 9.21002 | 31339 ft | 467 kts | 110° |
| 2026-04-26 15:06 | 50.06837 | 9.25858 | 31670 ft | 466 kts | 100° |
| 2026-04-26 15:07 | 50.06540 | 9.35868 | 32244 ft | 464 kts | 88° |
| 2026-04-26 15:07 | 50.06610 | 9.40890 | 32534 ft | 464 kts | 88° |
| 2026-04-26 15:07 | 50.06670 | 9.45921 | 32818 ft | 464 kts | 88° |
| 2026-04-26 15:08 | 50.06725 | 9.50945 | 33099 ft | 464 kts | 88° |
| 2026-04-26 15:08 | 50.06777 | 9.55952 | 33386 ft | 463 kts | 88° |
| 2026-04-26 15:08 | 50.06826 | 9.60952 | 33670 ft | 463 kts | 88° |
| 2026-04-26 15:08 | 50.06875 | 9.65972 | 33942 ft | 463 kts | 88° |
| 2026-04-26 15:09 | 50.06857 | 9.70995 | 34174 ft | 464 kts | 94° |
| 2026-04-26 15:09 | 50.06398 | 9.75959 | 34400 ft | 465 kts | 103° |
| 2026-04-26 15:09 | 50.05454 | 9.80713 | 34622 ft | 464 kts | 112° |
| 2026-04-26 15:09 | 50.04017 | 9.85279 | 34842 ft | 463 kts | 122° |
| 2026-04-26 15:10 | 50.02295 | 9.89429 | 35037 ft | 463 kts | 124° |
| 2026-04-26 15:10 | 50.01096 | 9.92262 | 35174 ft | 463 kts | 124° |
| 2026-04-26 15:10 | 49.96994 | 10.01946 | 35270 ft | 459 kts | 124° |
| 2026-04-26 15:11 | 49.93485 | 10.10222 | 35263 ft | 459 kts | 124° |
| 2026-04-26 15:11 | 49.89972 | 10.18471 | 35263 ft | 459 kts | 125° |
| 2026-04-26 15:12 | 49.86442 | 10.26730 | 35263 ft | 459 kts | 125° |
| 2026-04-26 15:12 | 49.82900 | 10.34945 | 35264 ft | 459 kts | 125° |
| 2026-04-26 15:13 | 49.79348 | 10.43166 | 35261 ft | 459 kts | 125° |
| 2026-04-26 15:13 | 49.75812 | 10.51358 | 35256 ft | 458 kts | 125° |
| 2026-04-26 15:14 | 49.72264 | 10.59550 | 35252 ft | 458 kts | 126° |
| 2026-04-26 15:14 | 49.68713 | 10.67721 | 35241 ft | 458 kts | 125° |
| 2026-04-26 15:15 | 49.65150 | 10.75888 | 35244 ft | 458 kts | 126° |
| 2026-04-26 15:15 | 49.61599 | 10.83981 | 35243 ft | 458 kts | 126° |
| 2026-04-26 15:16 | 49.58026 | 10.92120 | 35245 ft | 458 kts | 126° |
| 2026-04-26 15:16 | 49.54448 | 11.00249 | 35249 ft | 459 kts | 126° |
| 2026-04-26 15:17 | 49.51686 | 11.07196 | 35252 ft | 460 kts | 118° |
| 2026-04-26 15:17 | 49.48330 | 11.17487 | 35254 ft | 460 kts | 118° |
| 2026-04-26 15:18 | 49.45448 | 11.26298 | 35258 ft | 460 kts | 118° |
| 2026-04-26 15:18 | 49.42544 | 11.35062 | 35253 ft | 460 kts | 118° |
| 2026-04-26 15:19 | 49.39636 | 11.43820 | 35239 ft | 460 kts | 118° |
| 2026-04-26 15:19 | 49.36735 | 11.52521 | 35236 ft | 460 kts | 118° |
| 2026-04-26 15:20 | 49.33818 | 11.61264 | 35240 ft | 460 kts | 118° |
| 2026-04-26 15:20 | 49.30905 | 11.69992 | 35234 ft | 460 kts | 119° |
| 2026-04-26 15:21 | 49.27974 | 11.78727 | 35228 ft | 461 kts | 119° |
| 2026-04-26 15:21 | 49.25024 | 11.87452 | 35227 ft | 461 kts | 119° |
| 2026-04-26 15:22 | 49.22075 | 11.96155 | 35231 ft | 461 kts | 119° |
| 2026-04-26 15:22 | 49.19113 | 12.04885 | 35235 ft | 462 kts | 120° |
| 2026-04-26 15:23 | 49.16147 | 12.13595 | 35227 ft | 462 kts | 120° |
| 2026-04-26 15:23 | 49.13179 | 12.22301 | 35224 ft | 463 kts | 120° |
| 2026-04-26 15:24 | 49.10212 | 12.30959 | 35225 ft | 463 kts | 120° |
| 2026-04-26 15:24 | 49.07192 | 12.39705 | 35213 ft | 463 kts | 120° |
| 2026-04-26 15:25 | 49.04697 | 12.46918 | 35218 ft | 463 kts | 120° |
| 2026-04-26 15:25 | 49.01199 | 12.57011 | 35220 ft | 463 kts | 120° |
| 2026-04-26 15:26 | 48.98204 | 12.65644 | 35220 ft | 463 kts | 120° |
| 2026-04-26 15:26 | 48.95176 | 12.74325 | 35216 ft | 464 kts | 120° |
| 2026-04-26 15:27 | 48.92150 | 12.82982 | 35221 ft | 464 kts | 120° |
| 2026-04-26 15:27 | 48.89102 | 12.91649 | 35218 ft | 464 kts | 120° |
| 2026-04-26 15:28 | 48.86067 | 13.00236 | 35216 ft | 464 kts | 120° |
| 2026-04-26 15:28 | 48.83022 | 13.08849 | 35210 ft | 463 kts | 120° |
| 2026-04-26 15:29 | 48.79969 | 13.17463 | 35210 ft | 463 kts | 120° |
| 2026-04-26 15:30 | 48.73851 | 13.34657 | 35189 ft | 464 kts | 120° |
| 2026-04-26 15:30 | 48.70760 | 13.43266 | 35192 ft | 464 kts | 120° |
| 2026-04-26 15:31 | 48.66593 | 13.54624 | 35193 ft | 462 kts | 126° |
| 2026-04-26 15:32 | 48.60740 | 13.63775 | 35194 ft | 454 kts | 146° |
| 2026-04-26 15:32 | 48.54920 | 13.70607 | 35194 ft | 454 kts | 145° |
| 2026-04-26 15:33 | 48.49938 | 13.76503 | 35185 ft | 455 kts | 145° |
| 2026-04-26 15:33 | 48.44968 | 13.82371 | 35177 ft | 455 kts | 145° |
| 2026-04-26 15:34 | 48.39975 | 13.88227 | 35181 ft | 454 kts | 145° |
| 2026-04-26 15:34 | 48.34974 | 13.94072 | 35192 ft | 454 kts | 145° |
| 2026-04-26 15:35 | 48.30012 | 13.99868 | 35191 ft | 454 kts | 145° |
| 2026-04-26 15:35 | 48.25020 | 14.05679 | 35194 ft | 454 kts | 145° |
| 2026-04-26 15:36 | 48.20029 | 14.11468 | 35172 ft | 454 kts | 145° |
| 2026-04-26 15:36 | 48.15032 | 14.17266 | 35175 ft | 454 kts | 145° |
| 2026-04-26 15:37 | 48.10034 | 14.23036 | 35180 ft | 454 kts | 145° |
| 2026-04-26 15:37 | 48.05028 | 14.28799 | 35186 ft | 454 kts | 145° |
| 2026-04-26 15:38 | 48.00018 | 14.34559 | 35191 ft | 454 kts | 145° |
| 2026-04-26 15:38 | 47.94998 | 14.40323 | 35187 ft | 454 kts | 145° |
| 2026-04-26 15:39 | 47.89979 | 14.46060 | 35188 ft | 454 kts | 145° |
| 2026-04-26 15:39 | 47.85806 | 14.50791 | 35191 ft | 454 kts | 146° |
| 2026-04-26 15:40 | 47.79910 | 14.57432 | 35188 ft | 454 kts | 146° |
| 2026-04-26 15:40 | 47.74897 | 14.63082 | 35188 ft | 454 kts | 146° |
| 2026-04-26 15:41 | 47.69860 | 14.68752 | 35164 ft | 454 kts | 145° |
| 2026-04-26 15:41 | 47.64817 | 14.74416 | 35189 ft | 454 kts | 146° |
| 2026-04-26 15:42 | 47.59779 | 14.80053 | 35184 ft | 454 kts | 146° |
| 2026-04-26 15:42 | 47.54738 | 14.85690 | 35167 ft | 454 kts | 146° |
| 2026-04-26 15:43 | 47.49725 | 14.91277 | 35172 ft | 454 kts | 146° |
| 2026-04-26 15:44 | 47.42142 | 14.99691 | 35165 ft | 454 kts | 146° |
| 2026-04-26 15:44 | 47.34564 | 15.08067 | 35173 ft | 453 kts | 146° |
| 2026-04-26 15:45 | 47.27003 | 15.16396 | 35170 ft | 452 kts | 146° |
| 2026-04-26 15:46 | 47.19443 | 15.24702 | 35163 ft | 452 kts | 146° |
| 2026-04-26 15:46 | 47.15245 | 15.29302 | 35159 ft | 453 kts | 146° |
| 2026-04-26 15:47 | 47.06837 | 15.38471 | 35166 ft | 453 kts | 146° |
| 2026-04-26 15:48 | 47.01763 | 15.43991 | 35148 ft | 454 kts | 146° |
| 2026-04-26 15:48 | 46.96680 | 15.49510 | 35148 ft | 455 kts | 146° |
| 2026-04-26 15:49 | 46.91580 | 15.55041 | 35151 ft | 456 kts | 146° |
| 2026-04-26 15:49 | 46.86474 | 15.60547 | 35155 ft | 456 kts | 146° |
| 2026-04-26 15:50 | 46.81364 | 15.66061 | 35177 ft | 456 kts | 146° |
| 2026-04-26 15:50 | 46.76229 | 15.71595 | 35182 ft | 458 kts | 146° |
| 2026-04-26 15:51 | 46.71096 | 15.77091 | 35188 ft | 458 kts | 146° |
| 2026-04-26 15:51 | 46.65971 | 15.82561 | 35186 ft | 456 kts | 146° |
| 2026-04-26 15:52 | 46.60871 | 15.88008 | 35187 ft | 455 kts | 146° |
| 2026-04-26 15:52 | 46.55754 | 15.93459 | 35182 ft | 455 kts | 146° |
| 2026-04-26 15:53 | 46.50651 | 15.98882 | 35162 ft | 455 kts | 146° |
| 2026-04-26 15:53 | 46.45582 | 16.04250 | 35154 ft | 455 kts | 146° |
| 2026-04-26 15:54 | 46.40471 | 16.09660 | 35159 ft | 455 kts | 146° |
| 2026-04-26 15:54 | 46.35354 | 16.15062 | 35165 ft | 455 kts | 146° |
| 2026-04-26 15:55 | 46.30233 | 16.20437 | 35170 ft | 454 kts | 146° |
| 2026-04-26 15:55 | 46.25116 | 16.25811 | 35179 ft | 453 kts | 146° |
| 2026-04-26 15:56 | 46.20031 | 16.31159 | 35163 ft | 452 kts | 146° |
| 2026-04-26 15:56 | 46.14971 | 16.36455 | 35164 ft | 451 kts | 146° |
| 2026-04-26 15:57 | 46.09876 | 16.41755 | 35160 ft | 451 kts | 146° |
| 2026-04-26 15:57 | 46.04784 | 16.47039 | 35164 ft | 451 kts | 146° |
| 2026-04-26 15:58 | 45.99680 | 16.52328 | 35150 ft | 452 kts | 146° |
| 2026-04-26 15:58 | 45.94578 | 16.57607 | 35138 ft | 452 kts | 146° |
| 2026-04-26 15:59 | 45.89469 | 16.62890 | 35138 ft | 453 kts | 146° |
| 2026-04-26 15:59 | 45.84346 | 16.68163 | 35142 ft | 453 kts | 146° |
| 2026-04-26 16:00 | 45.79218 | 16.73433 | 35137 ft | 453 kts | 146° |
| 2026-04-26 16:00 | 45.74084 | 16.78700 | 35141 ft | 453 kts | 146° |
| 2026-04-26 16:01 | 45.68964 | 16.83940 | 35132 ft | 453 kts | 146° |
| 2026-04-26 16:01 | 45.63878 | 16.89135 | 35131 ft | 453 kts | 146° |
| 2026-04-26 16:02 | 45.58757 | 16.94356 | 35134 ft | 453 kts | 146° |
| 2026-04-26 16:02 | 45.53605 | 16.99590 | 35136 ft | 453 kts | 146° |
| 2026-04-26 16:03 | 45.48479 | 17.04788 | 35137 ft | 453 kts | 146° |
| 2026-04-26 16:03 | 45.43338 | 17.09983 | 35132 ft | 453 kts | 146° |
| 2026-04-26 16:04 | 45.38190 | 17.15173 | 35135 ft | 453 kts | 146° |
| 2026-04-26 16:04 | 45.33080 | 17.20322 | 35129 ft | 452 kts | 146° |
| 2026-04-26 16:05 | 45.27946 | 17.25489 | 35129 ft | 452 kts | 146° |
| 2026-04-26 16:05 | 45.22802 | 17.30642 | 35115 ft | 452 kts | 146° |
| 2026-04-26 16:06 | 45.17658 | 17.35786 | 35117 ft | 452 kts | 146° |
| 2026-04-26 16:06 | 45.12527 | 17.40910 | 35119 ft | 451 kts | 146° |
| 2026-04-26 16:07 | 45.07398 | 17.46021 | 35118 ft | 451 kts | 146° |
| 2026-04-26 16:07 | 45.02259 | 17.51133 | 35125 ft | 452 kts | 146° |
| 2026-04-26 16:08 | 44.97120 | 17.56237 | 35115 ft | 451 kts | 146° |
| 2026-04-26 16:08 | 44.91979 | 17.61335 | 35115 ft | 451 kts | 146° |
| 2026-04-26 16:09 | 44.86843 | 17.66411 | 35119 ft | 451 kts | 146° |
| 2026-04-26 16:09 | 44.81690 | 17.71480 | 35120 ft | 451 kts | 146° |
| 2026-04-26 16:10 | 44.76550 | 17.76533 | 35118 ft | 451 kts | 146° |
| 2026-04-26 16:10 | 44.71391 | 17.81588 | 35129 ft | 451 kts | 146° |
| 2026-04-26 16:11 | 44.66247 | 17.86624 | 35132 ft | 451 kts | 146° |
| 2026-04-26 16:11 | 44.61100 | 17.91652 | 35126 ft | 451 kts | 146° |
| 2026-04-26 16:12 | 44.55980 | 17.96651 | 35129 ft | 450 kts | 146° |
| 2026-04-26 16:12 | 44.48263 | 18.04148 | 35117 ft | 450 kts | 146° |
| 2026-04-26 16:13 | 44.43119 | 18.09120 | 35125 ft | 449 kts | 146° |
| 2026-04-26 16:13 | 44.37975 | 18.14092 | 35115 ft | 449 kts | 146° |
| 2026-04-26 16:14 | 44.32836 | 18.19049 | 35122 ft | 449 kts | 146° |
| 2026-04-26 16:15 | 44.25127 | 18.26473 | 35101 ft | 449 kts | 146° |
| 2026-04-26 16:15 | 44.19981 | 18.31422 | 35095 ft | 449 kts | 146° |
| 2026-04-26 16:16 | 44.12262 | 18.38815 | 35108 ft | 449 kts | 146° |
| 2026-04-26 16:16 | 44.07108 | 18.43734 | 35104 ft | 449 kts | 146° |
| 2026-04-26 16:17 | 44.01982 | 18.48618 | 35094 ft | 449 kts | 146° |
| 2026-04-26 16:17 | 43.96831 | 18.53515 | 35102 ft | 448 kts | 146° |
| 2026-04-26 16:18 | 43.89108 | 18.60836 | 35093 ft | 448 kts | 146° |
| 2026-04-26 16:19 | 43.81379 | 18.68142 | 35087 ft | 448 kts | 147° |
| 2026-04-26 16:20 | 43.73641 | 18.75430 | 35100 ft | 449 kts | 147° |
| 2026-04-26 16:20 | 43.66724 | 18.81923 | 35101 ft | 449 kts | 147° |
| 2026-04-26 16:21 | 43.61588 | 18.86740 | 35081 ft | 449 kts | 147° |
| 2026-04-26 16:21 | 43.56416 | 18.91578 | 35092 ft | 449 kts | 147° |
| 2026-04-26 16:22 | 43.51238 | 18.96406 | 35094 ft | 450 kts | 147° |
| 2026-04-26 16:22 | 43.46060 | 19.01232 | 35088 ft | 450 kts | 147° |
| 2026-04-26 16:23 | 43.40869 | 19.06055 | 35098 ft | 450 kts | 147° |
| 2026-04-26 16:23 | 43.35679 | 19.10859 | 35083 ft | 450 kts | 147° |
| 2026-04-26 16:24 | 43.30479 | 19.15664 | 35087 ft | 451 kts | 147° |
| 2026-04-26 16:24 | 43.25274 | 19.20480 | 35091 ft | 451 kts | 147° |
| 2026-04-26 16:25 | 43.20067 | 19.25291 | 35095 ft | 451 kts | 147° |
| 2026-04-26 16:25 | 43.14855 | 19.30083 | 35097 ft | 451 kts | 147° |
| 2026-04-26 16:26 | 43.09671 | 19.34834 | 35095 ft | 451 kts | 147° |
| 2026-04-26 16:26 | 43.04456 | 19.39606 | 35097 ft | 451 kts | 147° |
| 2026-04-26 16:27 | 42.99232 | 19.44375 | 35091 ft | 452 kts | 147° |
| 2026-04-26 16:27 | 42.94012 | 19.49140 | 35094 ft | 452 kts | 147° |
| 2026-04-26 16:28 | 42.88775 | 19.53909 | 35082 ft | 452 kts | 148° |
| 2026-04-26 16:28 | 42.83541 | 19.58659 | 35087 ft | 452 kts | 148° |
| 2026-04-26 16:29 | 42.78304 | 19.63403 | 35085 ft | 452 kts | 148° |
| 2026-04-26 16:29 | 42.73056 | 19.68147 | 35087 ft | 452 kts | 148° |
| 2026-04-26 16:30 | 42.67815 | 19.72871 | 35086 ft | 452 kts | 148° |
| 2026-04-26 16:30 | 42.62565 | 19.77593 | 35084 ft | 452 kts | 148° |
| 2026-04-26 16:31 | 42.57318 | 19.82317 | 35089 ft | 452 kts | 148° |
| 2026-04-26 16:31 | 42.52071 | 19.87030 | 35083 ft | 453 kts | 148° |
| 2026-04-26 16:32 | 42.47698 | 19.90944 | 35082 ft | 453 kts | 148° |
| 2026-04-26 16:32 | 42.41575 | 19.96408 | 35062 ft | 454 kts | 148° |
| 2026-04-26 16:33 | 42.36302 | 20.01110 | 35060 ft | 454 kts | 148° |
| 2026-04-26 16:33 | 42.31016 | 20.05810 | 35065 ft | 454 kts | 148° |
| 2026-04-26 16:34 | 42.25736 | 20.10500 | 35068 ft | 454 kts | 148° |
| 2026-04-26 16:34 | 42.20446 | 20.15189 | 35059 ft | 455 kts | 149° |
| 2026-04-26 16:35 | 42.15161 | 20.19865 | 35054 ft | 455 kts | 149° |
| 2026-04-26 16:35 | 42.09861 | 20.24544 | 35061 ft | 456 kts | 149° |
| 2026-04-26 16:36 | 42.04546 | 20.29215 | 35068 ft | 456 kts | 149° |
| 2026-04-26 16:36 | 41.99231 | 20.33888 | 35077 ft | 456 kts | 149° |
| 2026-04-26 16:37 | 41.93942 | 20.38525 | 35075 ft | 456 kts | 149° |
| 2026-04-26 16:37 | 41.89491 | 20.42422 | 35075 ft | 456 kts | 149° |
| 2026-04-26 16:38 | 41.83313 | 20.47815 | 35082 ft | 456 kts | 149° |
| 2026-04-26 16:38 | 41.77994 | 20.52452 | 35070 ft | 456 kts | 149° |
| 2026-04-26 16:39 | 41.72707 | 20.57194 | 35064 ft | 457 kts | 147° |
| 2026-04-26 16:39 | 41.67524 | 20.62106 | 35063 ft | 457 kts | 146° |
| 2026-04-26 16:40 | 41.62346 | 20.67041 | 35066 ft | 457 kts | 147° |
| 2026-04-26 16:40 | 41.57138 | 20.71909 | 35059 ft | 457 kts | 147° |
| 2026-04-26 16:41 | 41.51908 | 20.76742 | 35056 ft | 457 kts | 147° |
| 2026-04-26 16:41 | 41.46724 | 20.81542 | 35044 ft | 456 kts | 147° |
| 2026-04-26 16:42 | 41.41474 | 20.86407 | 35043 ft | 457 kts | 147° |
| 2026-04-26 16:42 | 41.36285 | 20.91210 | 35043 ft | 457 kts | 147° |
| 2026-04-26 16:43 | 41.31053 | 20.96034 | 35043 ft | 457 kts | 147° |
| 2026-04-26 16:43 | 41.25835 | 21.00834 | 35031 ft | 457 kts | 148° |
| 2026-04-26 16:44 | 41.20595 | 21.05646 | 35033 ft | 457 kts | 148° |
| 2026-04-26 16:44 | 41.15373 | 21.10432 | 35034 ft | 457 kts | 148° |
| 2026-04-26 16:45 | 41.10139 | 21.15226 | 35040 ft | 457 kts | 148° |
| 2026-04-26 16:45 | 41.04902 | 21.20023 | 35036 ft | 458 kts | 148° |
| 2026-04-26 16:46 | 40.99664 | 21.24806 | 35025 ft | 457 kts | 148° |
| 2026-04-26 16:46 | 40.94419 | 21.29582 | 35040 ft | 457 kts | 147° |
| 2026-04-26 16:47 | 40.89179 | 21.34340 | 35046 ft | 456 kts | 148° |
| 2026-04-26 16:47 | 40.83992 | 21.39076 | 35048 ft | 456 kts | 147° |
| 2026-04-26 16:48 | 40.78815 | 21.43960 | 35045 ft | 456 kts | 146° |
| 2026-04-26 16:48 | 40.73669 | 21.48827 | 35047 ft | 456 kts | 147° |
| 2026-04-26 16:49 | 40.68498 | 21.53678 | 35040 ft | 456 kts | 147° |
| 2026-04-26 16:49 | 40.63312 | 21.58507 | 35034 ft | 456 kts | 147° |
| 2026-04-26 16:50 | 40.58133 | 21.63314 | 35036 ft | 456 kts | 147° |
| 2026-04-26 16:50 | 40.52944 | 21.68130 | 35038 ft | 456 kts | 147° |
| 2026-04-26 16:51 | 40.47770 | 21.72930 | 35038 ft | 456 kts | 147° |
| 2026-04-26 16:51 | 40.42615 | 21.77706 | 35045 ft | 456 kts | 147° |
| 2026-04-26 16:52 | 40.38260 | 21.81724 | 35048 ft | 457 kts | 147° |
| 2026-04-26 16:52 | 40.32209 | 21.87301 | 35047 ft | 458 kts | 147° |
| 2026-04-26 16:53 | 40.27006 | 21.92105 | 35032 ft | 458 kts | 147° |
| 2026-04-26 16:53 | 40.21778 | 21.96909 | 35037 ft | 458 kts | 147° |
| 2026-04-26 16:54 | 40.16558 | 22.01689 | 35046 ft | 458 kts | 147° |
| 2026-04-26 16:54 | 40.11329 | 22.06468 | 35034 ft | 458 kts | 147° |
| 2026-04-26 16:55 | 40.06100 | 22.11239 | 35015 ft | 458 kts | 147° |
| 2026-04-26 16:55 | 40.00908 | 22.15965 | 35000 ft | 458 kts | 147° |
| 2026-04-26 16:56 | 39.93058 | 22.23105 | 35002 ft | 458 kts | 147° |
| 2026-04-26 16:57 | 39.87833 | 22.27848 | 35004 ft | 458 kts | 147° |
| 2026-04-26 16:57 | 39.79972 | 22.34964 | 35004 ft | 458 kts | 147° |
| 2026-04-26 16:58 | 39.76497 | 22.38096 | 34989 ft | 458 kts | 147° |
| 2026-04-26 16:59 | 39.66909 | 22.46724 | 35009 ft | 458 kts | 147° |
| 2026-04-26 17:00 | 39.56404 | 22.56164 | 35005 ft | 460 kts | 147° |
| 2026-04-26 17:00 | 39.48503 | 22.63231 | 34999 ft | 460 kts | 147° |
| 2026-04-26 17:01 | 39.43233 | 22.67929 | 35012 ft | 460 kts | 147° |
| 2026-04-26 17:01 | 39.37966 | 22.72627 | 35024 ft | 460 kts | 147° |
| 2026-04-26 17:02 | 39.32698 | 22.77322 | 35002 ft | 460 kts | 147° |
| 2026-04-26 17:02 | 39.27430 | 22.82002 | 34998 ft | 460 kts | 147° |
| 2026-04-26 17:03 | 39.22151 | 22.86670 | 34992 ft | 460 kts | 147° |
| 2026-04-26 17:03 | 39.19972 | 22.88595 | 34994 ft | 460 kts | 147° |
| 2026-04-26 17:04 | 39.14824 | 22.93146 | 35002 ft | 460 kts | 147° |
| 2026-04-26 17:04 | 39.09573 | 22.97788 | 35008 ft | 460 kts | 147° |
| 2026-04-26 17:05 | 39.04281 | 23.02445 | 35018 ft | 461 kts | 147° |
| 2026-04-26 17:05 | 38.99005 | 23.07072 | 35018 ft | 461 kts | 147° |
| 2026-04-26 17:06 | 38.93712 | 23.11712 | 35032 ft | 461 kts | 147° |
| 2026-04-26 17:06 | 38.89297 | 23.15583 | 35027 ft | 461 kts | 147° |
| 2026-04-26 17:07 | 38.83998 | 23.20219 | 35025 ft | 461 kts | 147° |
| 2026-04-26 17:07 | 38.78623 | 23.24904 | 35028 ft | 473 kts | 147° |
| 2026-04-26 17:08 | 38.73124 | 23.29701 | 35018 ft | 483 kts | 147° |
| 2026-04-26 17:08 | 38.67554 | 23.34561 | 35025 ft | 485 kts | 147° |
| 2026-04-26 17:09 | 38.62917 | 23.38579 | 35027 ft | 485 kts | 147° |
| 2026-04-26 17:09 | 38.56376 | 23.44239 | 35032 ft | 486 kts | 147° |
| 2026-04-26 17:10 | 38.50768 | 23.49082 | 35027 ft | 487 kts | 147° |
| 2026-04-26 17:10 | 38.45138 | 23.53941 | 35024 ft | 487 kts | 147° |
| 2026-04-26 17:11 | 38.39523 | 23.58774 | 35029 ft | 487 kts | 147° |
| 2026-04-26 17:11 | 38.33901 | 23.63603 | 35032 ft | 487 kts | 147° |
| 2026-04-26 17:12 | 38.25471 | 23.70848 | 35031 ft | 487 kts | 147° |
| 2026-04-26 17:13 | 38.17068 | 23.78027 | 35033 ft | 487 kts | 147° |
| 2026-04-26 17:14 | 38.08605 | 23.85222 | 35028 ft | 488 kts | 147° |
| 2026-04-26 17:14 | 38.00137 | 23.92429 | 35031 ft | 489 kts | 147° |
| 2026-04-26 17:15 | 37.91655 | 23.99624 | 35020 ft | 488 kts | 147° |
| 2026-04-26 17:16 | 37.86005 | 24.04399 | 35021 ft | 488 kts | 147° |
| 2026-04-26 17:16 | 37.80360 | 24.09165 | 35028 ft | 488 kts | 146° |
| 2026-04-26 17:17 | 37.74713 | 24.13922 | 35018 ft | 488 kts | 146° |
| 2026-04-26 17:17 | 37.69051 | 24.18680 | 35016 ft | 489 kts | 146° |
| 2026-04-26 17:18 | 37.63387 | 24.23437 | 35014 ft | 489 kts | 146° |
| 2026-04-26 17:18 | 37.57710 | 24.28186 | 35022 ft | 489 kts | 146° |
| 2026-04-26 17:19 | 37.50191 | 24.36758 | 35026 ft | 488 kts | 134° |
| 2026-04-26 17:19 | 37.45355 | 24.42760 | 35028 ft | 488 kts | 134° |
| 2026-04-26 17:20 | 37.41327 | 24.47737 | 35026 ft | 488 kts | 134° |
| 2026-04-26 17:20 | 37.35651 | 24.54736 | 35020 ft | 488 kts | 134° |
| 2026-04-26 17:21 | 37.30803 | 24.60719 | 35022 ft | 488 kts | 134° |
| 2026-04-26 17:21 | 37.25958 | 24.66689 | 35032 ft | 488 kts | 134° |
| 2026-04-26 17:22 | 37.21106 | 24.72657 | 35028 ft | 488 kts | 134° |
| 2026-04-26 17:22 | 37.16252 | 24.78614 | 35022 ft | 487 kts | 134° |
| 2026-04-26 17:23 | 37.11405 | 24.84557 | 35015 ft | 487 kts | 134° |
| 2026-04-26 17:23 | 37.06586 | 24.90441 | 35006 ft | 487 kts | 134° |
| 2026-04-26 17:24 | 37.01700 | 24.96397 | 35003 ft | 487 kts | 134° |
| 2026-04-26 17:24 | 36.96871 | 25.02275 | 35010 ft | 487 kts | 134° |
| 2026-04-26 17:25 | 36.92007 | 25.08175 | 35003 ft | 487 kts | 134° |
| 2026-04-26 17:25 | 36.87113 | 25.14052 | 35009 ft | 488 kts | 134° |
| 2026-04-26 17:26 | 36.82193 | 25.19870 | 35016 ft | 488 kts | 134° |
| 2026-04-26 17:26 | 36.77250 | 25.25701 | 35022 ft | 488 kts | 134° |
| 2026-04-26 17:27 | 36.72330 | 25.31520 | 35033 ft | 488 kts | 134° |
| 2026-04-26 17:27 | 36.67394 | 25.37360 | 35048 ft | 489 kts | 134° |
| 2026-04-26 17:28 | 36.62477 | 25.43201 | 35039 ft | 489 kts | 133° |
| 2026-04-26 17:28 | 36.57640 | 25.49078 | 35037 ft | 489 kts | 133° |
| 2026-04-26 17:29 | 36.53577 | 25.54047 | 35035 ft | 489 kts | 133° |
| 2026-04-26 17:29 | 36.47930 | 25.60912 | 35033 ft | 489 kts | 133° |
| 2026-04-26 17:30 | 36.43046 | 25.66802 | 35050 ft | 489 kts | 133° |
| 2026-04-26 17:30 | 36.38149 | 25.72681 | 35039 ft | 489 kts | 133° |
| 2026-04-26 17:31 | 36.33261 | 25.78574 | 35031 ft | 489 kts | 133° |
| 2026-04-26 17:31 | 36.28379 | 25.84450 | 35028 ft | 490 kts | 133° |
| 2026-04-26 17:32 | 36.23484 | 25.90298 | 35027 ft | 490 kts | 133° |
| 2026-04-26 17:32 | 36.18604 | 25.96088 | 35035 ft | 490 kts | 133° |
| 2026-04-26 17:33 | 36.13682 | 26.01898 | 35021 ft | 490 kts | 133° |
| 2026-04-26 17:34 | 36.06254 | 26.10634 | 35014 ft | 490 kts | 133° |
| 2026-04-26 17:34 | 36.01325 | 26.16423 | 35014 ft | 490 kts | 133° |
| 2026-04-26 17:35 | 35.96376 | 26.22223 | 35013 ft | 491 kts | 133° |
| 2026-04-26 17:35 | 35.91413 | 26.28039 | 35031 ft | 491 kts | 133° |
| 2026-04-26 17:36 | 35.86462 | 26.33839 | 35026 ft | 491 kts | 133° |
| 2026-04-26 17:36 | 35.81486 | 26.39642 | 35021 ft | 492 kts | 133° |
| 2026-04-26 17:37 | 35.76533 | 26.45383 | 35021 ft | 492 kts | 133° |
| 2026-04-26 17:37 | 35.71509 | 26.51201 | 35018 ft | 492 kts | 133° |
| 2026-04-26 17:38 | 35.64068 | 26.59820 | 35039 ft | 491 kts | 133° |
| 2026-04-26 17:38 | 35.59088 | 26.65575 | 35032 ft | 491 kts | 133° |
| 2026-04-26 17:39 | 35.54112 | 26.71316 | 35028 ft | 491 kts | 133° |
| 2026-04-26 17:39 | 35.49131 | 26.77048 | 35018 ft | 491 kts | 133° |
| 2026-04-26 17:40 | 35.45788 | 26.80895 | 35003 ft | 491 kts | 133° |
| 2026-04-26 17:40 | 35.39155 | 26.88521 | 35017 ft | 491 kts | 133° |
| 2026-04-26 17:41 | 35.34172 | 26.94228 | 35006 ft | 490 kts | 134° |
| 2026-04-26 17:41 | 35.29182 | 26.99932 | 34997 ft | 490 kts | 134° |
| 2026-04-26 17:42 | 35.24192 | 27.05619 | 34995 ft | 490 kts | 134° |
| 2026-04-26 17:42 | 35.19197 | 27.11293 | 34995 ft | 490 kts | 134° |
| 2026-04-26 17:43 | 35.14208 | 27.16965 | 35003 ft | 490 kts | 134° |
| 2026-04-26 17:43 | 35.09217 | 27.22640 | 35019 ft | 490 kts | 134° |
| 2026-04-26 17:44 | 35.04236 | 27.28233 | 35005 ft | 491 kts | 136° |
| 2026-04-26 17:44 | 34.98937 | 27.33522 | 35000 ft | 492 kts | 140° |
| 2026-04-26 17:45 | 34.93488 | 27.38555 | 34979 ft | 492 kts | 140° |
| 2026-04-26 17:45 | 34.88044 | 27.43636 | 34969 ft | 493 kts | 140° |
| 2026-04-26 17:46 | 34.82664 | 27.48800 | 35002 ft | 493 kts | 140° |
| 2026-04-26 17:46 | 34.77293 | 27.53979 | 35008 ft | 491 kts | 140° |
| 2026-04-26 17:47 | 34.73698 | 27.57429 | 35013 ft | 491 kts | 140° |
| 2026-04-26 17:47 | 34.66564 | 27.64240 | 34995 ft | 490 kts | 140° |
| 2026-04-26 17:48 | 34.61194 | 27.69343 | 34997 ft | 490 kts | 140° |
| 2026-04-26 17:48 | 34.55823 | 27.74445 | 34984 ft | 490 kts | 140° |
| 2026-04-26 17:49 | 34.50811 | 27.79950 | 34975 ft | 489 kts | 133° |
| 2026-04-26 17:49 | 34.46016 | 27.85783 | 34970 ft | 489 kts | 133° |
| 2026-04-26 17:50 | 34.41193 | 27.91606 | 34970 ft | 489 kts | 133° |
| 2026-04-26 17:50 | 34.36394 | 27.97402 | 34971 ft | 490 kts | 133° |
| 2026-04-26 17:51 | 34.32342 | 28.02280 | 34973 ft | 490 kts | 133° |
| 2026-04-26 17:51 | 34.27530 | 28.08074 | 34982 ft | 491 kts | 134° |
| 2026-04-26 17:52 | 34.22683 | 28.13923 | 34966 ft | 493 kts | 134° |
| 2026-04-26 17:52 | 34.17826 | 28.19766 | 34962 ft | 494 kts | 134° |
| 2026-04-26 17:53 | 34.12942 | 28.25615 | 34960 ft | 495 kts | 134° |
| 2026-04-26 17:54 | 34.05589 | 28.34397 | 34962 ft | 496 kts | 134° |
| 2026-04-26 17:54 | 34.00666 | 28.40275 | 34981 ft | 496 kts | 135° |
| 2026-04-26 17:55 | 33.95751 | 28.46143 | 34974 ft | 497 kts | 135° |
| 2026-04-26 17:55 | 33.90833 | 28.52000 | 34969 ft | 498 kts | 135° |
| 2026-04-26 17:56 | 33.85900 | 28.57845 | 34970 ft | 498 kts | 135° |
| 2026-04-26 17:57 | 33.76020 | 28.69538 | 34985 ft | 498 kts | 136° |
| 2026-04-26 17:57 | 33.71082 | 28.75375 | 34986 ft | 497 kts | 136° |
| 2026-04-26 17:58 | 33.61022 | 28.86706 | 34963 ft | 497 kts | 139° |
| 2026-04-26 17:59 | 33.53418 | 28.95150 | 34959 ft | 498 kts | 138° |
| 2026-04-26 17:59 | 33.48358 | 29.00826 | 34977 ft | 498 kts | 139° |
| 2026-04-26 18:00 | 33.43314 | 29.06477 | 34977 ft | 497 kts | 139° |
| 2026-04-26 18:00 | 33.38241 | 29.12133 | 34980 ft | 497 kts | 139° |
| 2026-04-26 18:01 | 33.33175 | 29.17761 | 34959 ft | 497 kts | 139° |
| 2026-04-26 18:01 | 33.28099 | 29.23392 | 34948 ft | 498 kts | 139° |
| 2026-04-26 18:02 | 33.23870 | 29.28078 | 34959 ft | 499 kts | 140° |
| 2026-04-26 18:02 | 33.17920 | 29.34671 | 34965 ft | 498 kts | 140° |
| 2026-04-26 18:03 | 33.12864 | 29.40252 | 34968 ft | 498 kts | 140° |
| 2026-04-26 18:03 | 33.07774 | 29.45870 | 34969 ft | 498 kts | 140° |
| 2026-04-26 18:04 | 33.02665 | 29.51483 | 34963 ft | 497 kts | 140° |
| 2026-04-26 18:05 | 32.95044 | 29.59855 | 34946 ft | 498 kts | 141° |
| 2026-04-26 18:05 | 32.89923 | 29.65491 | 34946 ft | 499 kts | 141° |
| 2026-04-26 18:06 | 32.84847 | 29.71053 | 34949 ft | 499 kts | 141° |
| 2026-04-26 18:06 | 32.79728 | 29.76635 | 34958 ft | 499 kts | 141° |
| 2026-04-26 18:07 | 32.74606 | 29.82216 | 34957 ft | 499 kts | 141° |
| 2026-04-26 18:07 | 32.69480 | 29.87811 | 34978 ft | 499 kts | 141° |
| 2026-04-26 18:08 | 32.64363 | 29.93392 | 34949 ft | 500 kts | 141° |
| 2026-04-26 18:08 | 32.59231 | 29.98952 | 34955 ft | 500 kts | 142° |
| 2026-04-26 18:09 | 32.54084 | 30.04518 | 34960 ft | 501 kts | 142° |
| 2026-04-26 18:09 | 32.48940 | 30.10082 | 34966 ft | 501 kts | 142° |
| 2026-04-26 18:10 | 32.43794 | 30.15636 | 34968 ft | 501 kts | 142° |
| 2026-04-26 18:10 | 32.38633 | 30.21188 | 34980 ft | 500 kts | 142° |
| 2026-04-26 18:11 | 32.33477 | 30.26724 | 34956 ft | 500 kts | 142° |
| 2026-04-26 18:11 | 32.28323 | 30.32256 | 34960 ft | 501 kts | 142° |
| 2026-04-26 18:12 | 32.23162 | 30.37788 | 34962 ft | 501 kts | 142° |
| 2026-04-26 18:12 | 32.17996 | 30.43321 | 34963 ft | 501 kts | 143° |
| 2026-04-26 18:13 | 32.12827 | 30.48848 | 34981 ft | 501 kts | 143° |
| 2026-04-26 18:13 | 32.07665 | 30.54356 | 34989 ft | 500 kts | 143° |
| 2026-04-26 18:14 | 32.02497 | 30.59866 | 34991 ft | 500 kts | 143° |
| 2026-04-26 18:14 | 31.97345 | 30.65344 | 34991 ft | 500 kts | 143° |
| 2026-04-26 18:15 | 31.92177 | 30.70826 | 34993 ft | 500 kts | 143° |
| 2026-04-26 18:15 | 31.86999 | 30.76310 | 34993 ft | 500 kts | 143° |
| 2026-04-26 18:16 | 31.81831 | 30.81778 | 34991 ft | 500 kts | 143° |
| 2026-04-26 18:16 | 31.74067 | 30.89978 | 34317 ft | 502 kts | 143° |
| 2026-04-26 18:17 | 31.71453 | 30.92733 | 33372 ft | 506 kts | 143° |
| 2026-04-26 18:17 | 31.68831 | 30.95498 | 32556 ft | 504 kts | 143° |
| 2026-04-26 18:17 | 31.66255 | 30.98213 | 31657 ft | 505 kts | 143° |
| 2026-04-26 18:17 | 31.63606 | 31.00999 | 30767 ft | 505 kts | 143° |
| 2026-04-26 18:18 | 31.61029 | 31.03703 | 29827 ft | 501 kts | 143° |
| 2026-04-26 18:18 | 31.58435 | 31.06428 | 28028 ft | 499 kts | 143° |
| 2026-04-26 18:18 | 31.55770 | 31.09111 | 26116 ft | 497 kts | 148° |
| 2026-04-26 18:18 | 31.52950 | 31.11305 | 24259 ft | 490 kts | 156° |
| 2026-04-26 18:19 | 31.49865 | 31.13005 | 22938 ft | 474 kts | 165° |
| 2026-04-26 18:19 | 31.46815 | 31.14135 | 22981 ft | 458 kts | 170° |
| 2026-04-26 18:19 | 31.43774 | 31.15121 | 22978 ft | 452 kts | 169° |
| 2026-04-26 18:19 | 31.40759 | 31.16111 | 22989 ft | 451 kts | 169° |
| 2026-04-26 18:20 | 31.37682 | 31.17114 | 22975 ft | 461 kts | 170° |
| 2026-04-26 18:20 | 31.34574 | 31.18118 | 22979 ft | 467 kts | 170° |
| 2026-04-26 18:20 | 31.31424 | 31.19130 | 22979 ft | 469 kts | 170° |
| 2026-04-26 18:20 | 31.30377 | 31.19466 | 22979 ft | 469 kts | 170° |
| 2026-04-26 18:21 | 31.25138 | 31.21140 | 22984 ft | 469 kts | 170° |
| 2026-04-26 18:21 | 31.21966 | 31.21967 | 22908 ft | 465 kts | 177° |
| 2026-04-26 18:21 | 31.18767 | 31.22480 | 22513 ft | 462 kts | 178° |
| 2026-04-26 18:21 | 31.15611 | 31.22967 | 22125 ft | 458 kts | 178° |
| 2026-04-26 18:22 | 31.12453 | 31.23443 | 21706 ft | 456 kts | 178° |
| 2026-04-26 18:22 | 31.09312 | 31.23908 | 21319 ft | 454 kts | 178° |
| 2026-04-26 18:22 | 31.06169 | 31.24370 | 20934 ft | 452 kts | 178° |
| 2026-04-26 18:22 | 31.03077 | 31.24772 | 20552 ft | 445 kts | 183° |
| 2026-04-26 18:23 | 31.00008 | 31.24672 | 20179 ft | 438 kts | 188° |
| 2026-04-26 18:23 | 30.96983 | 31.24481 | 19816 ft | 435 kts | 188° |
| 2026-04-26 18:23 | 30.93969 | 31.24288 | 19472 ft | 433 kts | 188° |
| 2026-04-26 18:23 | 30.90957 | 31.24101 | 19112 ft | 431 kts | 188° |
| 2026-04-26 18:24 | 30.87954 | 31.23917 | 18736 ft | 430 kts | 188° |
| 2026-04-26 18:24 | 30.84974 | 31.23743 | 18387 ft | 428 kts | 188° |
| 2026-04-26 18:24 | 30.82003 | 31.23569 | 18004 ft | 426 kts | 188° |
| 2026-04-26 18:24 | 30.79038 | 31.23393 | 17598 ft | 424 kts | 188° |
| 2026-04-26 18:25 | 30.76099 | 31.23216 | 17187 ft | 421 kts | 188° |
| 2026-04-26 18:25 | 30.73203 | 31.23043 | 16671 ft | 412 kts | 188° |
| 2026-04-26 18:25 | 30.70364 | 31.22875 | 16163 ft | 402 kts | 188° |
| 2026-04-26 18:25 | 30.67625 | 31.22715 | 15666 ft | 390 kts | 188° |
| 2026-04-26 18:26 | 30.64892 | 31.22713 | 15151 ft | 390 kts | 178° |
| 2026-04-26 18:26 | 30.62290 | 31.23543 | 14671 ft | 395 kts | 166° |
| 2026-04-26 18:26 | 30.59697 | 31.24663 | 14174 ft | 385 kts | 165° |
| 2026-04-26 18:26 | 30.57265 | 31.25735 | 13704 ft | 365 kts | 165° |
| 2026-04-26 18:27 | 30.54963 | 31.26761 | 13184 ft | 347 kts | 165° |
| 2026-04-26 18:27 | 30.52742 | 31.27752 | 12658 ft | 333 kts | 165° |
| 2026-04-26 18:27 | 30.50627 | 31.28691 | 12152 ft | 321 kts | 165° |
| 2026-04-26 18:27 | 30.48572 | 31.29597 | 11656 ft | 311 kts | 165° |
| 2026-04-26 18:28 | 30.47243 | 31.30178 | 11327 ft | 305 kts | 165° |
| 2026-04-26 18:28 | 30.45265 | 31.31034 | 10830 ft | 299 kts | 165° |
| 2026-04-26 18:28 | 30.43299 | 31.31869 | 10345 ft | 296 kts | 165° |
| 2026-04-26 18:28 | 30.41393 | 31.32663 | 9876 ft | 294 kts | 165° |
| 2026-04-26 18:29 | 30.39460 | 31.33452 | 9356 ft | 295 kts | 165° |
| 2026-04-26 18:29 | 30.37514 | 31.34244 | 8828 ft | 298 kts | 165° |
| 2026-04-26 18:29 | 30.35550 | 31.35040 | 8314 ft | 300 kts | 165° |
| 2026-04-26 18:29 | 30.33580 | 31.35825 | 7821 ft | 301 kts | 165° |
| 2026-04-26 18:30 | 30.31582 | 31.36610 | 7307 ft | 302 kts | 165° |
| 2026-04-26 18:30 | 30.29592 | 31.37377 | 6814 ft | 297 kts | 165° |
| 2026-04-26 18:30 | 30.27695 | 31.38106 | 6442 ft | 283 kts | 165° |
| 2026-04-26 18:30 | 30.25824 | 31.38824 | 6062 ft | 278 kts | 165° |
| 2026-04-26 18:31 | 30.23996 | 31.39525 | 5963 ft | 276 kts | 165° |
| 2026-04-26 18:31 | 30.22169 | 31.40221 | 5974 ft | 277 kts | 165° |
| 2026-04-26 18:31 | 30.20364 | 31.41003 | 5974 ft | 280 kts | 153° |
| 2026-04-26 18:31 | 30.18913 | 31.42513 | 5974 ft | 286 kts | 125° |
| 2026-04-26 18:32 | 30.18180 | 31.44655 | 5975 ft | 289 kts | 100° |
| 2026-04-26 18:32 | 30.17957 | 31.46900 | 5965 ft | 274 kts | 95° |
| 2026-04-26 18:32 | 30.17807 | 31.49015 | 5972 ft | 250 kts | 95° |
| 2026-04-26 18:32 | 30.17680 | 31.50980 | 5973 ft | 247 kts | 95° |
| 2026-04-26 18:33 | 30.17552 | 31.52960 | 5974 ft | 246 kts | 94° |
| 2026-04-26 18:33 | 30.17405 | 31.54933 | 5975 ft | 247 kts | 95° |
| 2026-04-26 18:33 | 30.17259 | 31.56911 | 5977 ft | 247 kts | 95° |
| 2026-04-26 18:33 | 30.17116 | 31.58893 | 5933 ft | 248 kts | 95° |
| 2026-04-26 18:34 | 30.16968 | 31.60869 | 5683 ft | 247 kts | 95° |
| 2026-04-26 18:34 | 30.17032 | 31.62831 | 5430 ft | 244 kts | 71° |
| 2026-04-26 18:34 | 30.17904 | 31.64483 | 5181 ft | 236 kts | 39° |
| 2026-04-26 18:34 | 30.19249 | 31.65547 | 4934 ft | 232 kts | 20° |
| 2026-04-26 18:35 | 30.20767 | 31.65827 | 4692 ft | 222 kts | 347° |
| 2026-04-26 18:35 | 30.22129 | 31.65094 | 4436 ft | 214 kts | 313° |
| 2026-04-26 18:35 | 30.22844 | 31.63628 | 4180 ft | 209 kts | 282° |
| 2026-04-26 18:35 | 30.23065 | 31.61990 | 3913 ft | 210 kts | 276° |
| 2026-04-26 18:36 | 30.23209 | 31.60307 | 3608 ft | 209 kts | 275° |
| 2026-04-26 18:36 | 30.23255 | 31.58634 | 3311 ft | 208 kts | 263° |
| 2026-04-26 18:36 | 30.22796 | 31.57051 | 3008 ft | 209 kts | 241° |
| 2026-04-26 18:36 | 30.21890 | 31.55730 | 2708 ft | 209 kts | 232° |
| 2026-04-26 18:37 | 30.20950 | 31.54479 | 2408 ft | 203 kts | 232° |
| 2026-04-26 18:37 | 30.20052 | 31.53281 | 2136 ft | 189 kts | 232° |
| 2026-04-26 18:37 | 30.19248 | 31.52209 | 2022 ft | 164 kts | 233° |
| 2026-04-26 18:37 | 30.18553 | 31.51283 | 2004 ft | 146 kts | 234° |
| 2026-04-26 18:38 | 30.17913 | 31.50424 | 1937 ft | 141 kts | 236° |
| 2026-04-26 18:38 | 30.17265 | 31.49555 | 1784 ft | 140 kts | 236° |
| 2026-04-26 18:38 | 30.16636 | 31.48708 | 1596 ft | 138 kts | 234° |
| 2026-04-26 18:38 | 30.16016 | 31.47889 | 1449 ft | 137 kts | 234° |
| 2026-04-26 18:39 | 30.15397 | 31.47054 | 1287 ft | 135 kts | 236° |
| 2026-04-26 18:39 | 30.14786 | 31.46220 | 1099 ft | 136 kts | 236° |
| 2026-04-26 18:39 | 30.14155 | 31.45383 | 937 ft | 140 kts | 234° |
| 2026-04-26 18:39 | 30.13511 | 31.44534 | 752 ft | 140 kts | 233° |
| 2026-04-26 18:40 | 30.12878 | 31.43689 | 594 ft | 138 kts | 234° |
| 2026-04-26 18:40 | 30.12239 | 31.42851 | 397 ft | 139 kts | 234° |
| 2026-04-26 18:40 | 30.11669 | 31.42083 | 370 ft | 109 kts | 230° |
| 2026-04-26 18:40 | 30.11272 | 31.41556 | 374 ft | 68 kts | 229° |
| 2026-04-26 18:41 | 30.11029 | 31.41228 | 375 ft | 42 kts | 229° |
| 2026-04-26 18:41 | 30.10850 | 31.40985 | 372 ft | 39 kts | 227° |
| 2026-04-26 18:41 | 30.10746 | 31.40802 | 372 ft | 22 kts | 273° |
| 2026-04-26 18:41 | 30.10786 | 31.40713 | 375 ft | 9 kts | 316° |
| 2026-04-26 18:42 | 30.10801 | 31.40696 | 375 ft | 0 kts | 316° |
| 2026-04-26 18:42 | 30.10827 | 31.40668 | 375 ft | 8 kts | 316° |
| 2026-04-26 18:42 | 30.10835 | 31.40586 | 374 ft | 14 kts | 244° |
| 2026-04-26 18:43 | 30.10763 | 31.40485 | 374 ft | 17 kts | 230° |
| 2026-04-26 18:43 | 30.10693 | 31.40392 | 374 ft | 13 kts | 229° |
| 2026-04-26 18:43 | 30.10696 | 31.40315 | 374 ft | 11 kts | 314° |
| 2026-04-26 18:43 | 30.10767 | 31.40334 | 374 ft | 12 kts | 47° |
| 2026-04-26 18:44 | 30.10819 | 31.40403 | 374 ft | 11 kts | 49° |
| 2026-04-26 18:44 | 30.10868 | 31.40459 | 374 ft | 9 kts | 27° |
| 2026-04-26 18:44 | 30.10922 | 31.40438 | 374 ft | 10 kts | 308° |
| 2026-04-26 18:44 | 30.10953 | 31.40361 | 374 ft | 12 kts | 286° |
| 2026-04-26 18:45 | 30.10967 | 31.40300 | 374 ft | 6 kts | 285° |
| 2026-04-26 18:45 | 30.10956 | 31.40265 | 374 ft | 4 kts | 236° |
| 2026-04-26 18:45 | 30.10941 | 31.40241 | 374 ft | 3 kts | 227° |
| 2026-04-26 18:45 | 30.10923 | 31.40236 | 374 ft | 4 kts | 180° |
| 2026-04-26 18:46 | 30.10889 | 31.40266 | 374 ft | 7 kts | 139° |
| 2026-04-26 18:46 | 30.10867 | 31.40287 | 374 ft | 2 kts | 140° |
| 2026-04-26 18:46 | 30.10866 | 31.40288 | 374 ft | 0 kts | 140° |